createdAt,value
2023-08-31T00:01:54.476Z,2.03
2023-08-31T00:04:23.977Z,2.20
2023-08-31T00:06:57.565Z,2.03
2023-08-31T00:09:26.618Z,2.10
2023-08-31T00:12:11.438Z,1.75
2023-08-31T00:14:48.250Z,2.00
2023-08-31T00:17:21.388Z,2.22
2023-08-31T00:20:12.754Z,1.90
2023-08-31T00:23:00.483Z,2.95
2023-08-31T00:25:38.121Z,2.55
2023-08-31T00:28:13.269Z,2.10
2023-08-31T00:30:58.806Z,2.22
2023-08-31T00:33:49.666Z,2.15
2023-08-31T00:36:22.584Z,2.50
2023-08-31T00:38:51.262Z,2.38
2023-08-31T00:41:20.938Z,2.72
2023-08-31T00:43:49.915Z,2.70
2023-08-31T00:46:21.101Z,2.78
2023-08-31T00:48:52.200Z,2.55
2023-08-31T00:51:32.402Z,2.50
2023-08-31T00:54:10.694Z,2.88
2023-08-31T00:56:39.637Z,2.88
2023-08-31T00:59:10.309Z,2.60
2023-08-31T01:01:42.126Z,2.80
2023-08-31T01:04:24.809Z,2.60
2023-08-31T01:06:58.649Z,2.40
2023-08-31T01:09:46.369Z,2.50
2023-08-31T01:12:43.728Z,2.83
2023-08-31T01:15:13.573Z,2.60
2023-08-31T01:17:55.032Z,2.58
2023-08-31T01:23:06.603Z,2.50
2023-08-31T01:25:36.297Z,2.63
2023-08-31T01:28:07.250Z,2.55
2023-08-31T01:30:42.797Z,2.80
2023-08-31T01:33:25.517Z,3.10
2023-08-31T01:35:56.839Z,2.83
2023-08-31T01:38:29.278Z,2.60
2023-08-31T01:41:07.897Z,3.03
2023-08-31T01:43:39.244Z,3.03
2023-08-31T01:46:13.151Z,2.85
2023-08-31T01:48:44.829Z,3.75
2023-08-31T01:51:13.695Z,3.25
2023-08-31T01:53:56.034Z,3.00
2023-08-31T01:56:26.797Z,3.08
2023-08-31T01:58:58.479Z,2.78
2023-08-31T02:01:48.922Z,3.00
2023-08-31T02:04:21.813Z,2.85
2023-08-31T02:07:05.564Z,2.88
2023-08-31T02:09:51.160Z,2.88
2023-08-31T02:12:27.869Z,3.63
2023-08-31T02:15:03.769Z,2.85
2023-08-31T02:17:51.462Z,2.95
2023-08-31T02:20:35.733Z,3.67
2023-08-31T02:23:18.225Z,3.53
2023-08-31T02:25:47.020Z,3.03
2023-08-31T02:28:18.976Z,3.22
2023-08-31T02:30:48.606Z,3.30
2023-08-31T02:33:27.184Z,3.78
2023-08-31T02:35:57.027Z,3.15
2023-08-31T02:38:28.330Z,3.47
2023-08-31T02:40:56.883Z,3.00
2023-08-31T02:43:26.424Z,3.58
2023-08-31T02:46:04.444Z,3.00
2023-08-31T02:48:42.526Z,3.40
2023-08-31T02:51:12.374Z,3.35
2023-08-31T02:53:43.129Z,3.10
2023-08-31T02:56:12.868Z,3.28
2023-08-31T02:58:41.907Z,3.05
2023-08-31T03:01:13.860Z,2.75
2023-08-31T03:03:52.124Z,2.85
2023-08-31T03:06:21.606Z,2.85
2023-08-31T03:08:53.365Z,3.13
2023-08-31T03:11:22.617Z,2.90
2023-08-31T03:13:51.607Z,2.90
2023-08-31T03:16:21.675Z,3.08
2023-08-31T03:18:49.988Z,2.78
2023-08-31T03:21:22.871Z,3.25
2023-08-31T03:23:52.005Z,2.90
2023-08-31T03:26:23.325Z,3.20
2023-08-31T03:28:52.871Z,3.20
2023-08-31T03:31:23.125Z,3.03
2023-08-31T03:33:52.332Z,3.00
2023-08-31T03:36:20.630Z,3.25
2023-08-31T03:38:50.208Z,3.22
2023-08-31T03:41:21.581Z,2.90
2023-08-31T03:43:52.262Z,3.33
2023-08-31T03:46:25.320Z,3.47
2023-08-31T03:48:53.957Z,3.30
2023-08-31T03:51:25.965Z,3.80
2023-08-31T03:53:56.084Z,3.17
2023-08-31T03:56:25.614Z,2.83
2023-08-31T03:58:53.885Z,2.70
2023-08-31T04:01:22.285Z,3.15
2023-08-31T04:03:52.142Z,2.95
2023-08-31T04:06:23.780Z,3.20
2023-08-31T04:09:06.142Z,3.30
2023-08-31T04:11:35.878Z,3.25
2023-08-31T04:14:07.022Z,3.00
2023-08-31T04:16:36.520Z,3.03
2023-08-31T04:19:06.581Z,3.38
2023-08-31T04:21:39.747Z,2.83
2023-08-31T04:24:09.291Z,3.42
2023-08-31T04:26:38.574Z,3.30
2023-08-31T04:29:11.413Z,3.78
2023-08-31T04:31:40.867Z,3.15
2023-08-31T04:34:10.167Z,3.25
2023-08-31T04:36:38.807Z,3.70
2023-08-31T04:39:08.845Z,3.92
2023-08-31T04:41:39.490Z,2.88
2023-08-31T04:44:09.100Z,3.50
2023-08-31T04:46:37.444Z,4.40
2023-08-31T04:49:06.306Z,3.70
2023-08-31T04:51:36.270Z,3.83
2023-08-31T04:54:04.984Z,4.47
2023-08-31T04:56:34.607Z,4.28
2023-08-31T04:59:03.881Z,4.22
2023-08-31T05:01:33.205Z,4.47
2023-08-31T05:04:02.024Z,5.15
2023-08-31T05:06:30.924Z,4.10
2023-08-31T05:09:01.703Z,4.03
2023-08-31T05:11:31.817Z,4.25
2023-08-31T05:14:01.174Z,4.63
2023-08-31T05:16:30.341Z,4.18
2023-08-31T05:18:58.684Z,4.70
2023-08-31T05:21:27.138Z,4.10
2023-08-31T05:26:33.649Z,4.38
2023-08-31T05:29:01.993Z,4.93
2023-08-31T05:31:30.454Z,4.65
2023-08-31T05:33:59.571Z,5.05
2023-08-31T05:36:28.353Z,5.03
2023-08-31T05:38:57.130Z,5.50
2023-08-31T05:41:29.008Z,5.05
2023-08-31T05:43:57.333Z,5.75
2023-08-31T05:46:29.370Z,5.30
2023-08-31T05:48:57.786Z,5.70
2023-08-31T05:51:26.722Z,6.43
2023-08-31T05:53:55.502Z,5.88
2023-08-31T05:56:23.821Z,6.35
2023-08-31T05:58:55.928Z,5.90
2023-08-31T06:01:24.564Z,6.30
2023-08-31T06:03:53.444Z,5.97
2023-08-31T06:06:22.266Z,6.20
2023-08-31T06:08:50.889Z,7.78
2023-08-31T06:11:19.396Z,6.68
2023-08-31T06:13:47.952Z,7.15
2023-08-31T06:16:16.548Z,7.10
2023-08-31T06:18:45.324Z,6.70
2023-08-31T06:21:16.517Z,6.85
2023-08-31T06:23:47.217Z,6.82
2023-08-31T06:26:15.745Z,7.07
2023-08-31T06:28:44.178Z,6.78
2023-08-31T06:31:12.761Z,6.70
2023-08-31T06:33:44.703Z,6.50
2023-08-31T06:36:15.329Z,6.63
2023-08-31T06:38:45.715Z,7.07
2023-08-31T06:41:14.639Z,6.20
2023-08-31T06:43:43.356Z,7.50
2023-08-31T06:46:24.265Z,6.65
2023-08-31T06:48:53.657Z,6.85
2023-08-31T06:51:24.011Z,7.38
2023-08-31T06:53:53.956Z,6.03
2023-08-31T06:56:26.022Z,6.32
2023-08-31T06:58:57.725Z,6.25
2023-08-31T07:01:26.169Z,6.18
2023-08-31T07:03:54.561Z,6.40
2023-08-31T07:06:23.862Z,6.03
2023-08-31T07:08:52.925Z,6.18
2023-08-31T07:11:28.734Z,6.53
2023-08-31T07:13:58.900Z,7.35
2023-08-31T07:16:28.424Z,5.68
2023-08-31T07:18:59.619Z,6.60
2023-08-31T07:21:28.526Z,5.43
2023-08-31T07:23:57.085Z,5.72
2023-08-31T07:26:25.818Z,5.75
2023-08-31T07:28:56.699Z,4.70
2023-08-31T07:31:25.098Z,5.60
2023-08-31T07:33:54.463Z,4.43
2023-08-31T07:36:24.233Z,4.68
2023-08-31T07:38:52.742Z,5.10
2023-08-31T07:41:21.253Z,4.80
2023-08-31T07:44:02.655Z,4.00
2023-08-31T07:46:35.950Z,4.25
2023-08-31T07:49:05.353Z,4.28
2023-08-31T07:51:36.296Z,4.18
2023-08-31T07:54:05.583Z,4.45
2023-08-31T07:56:36.244Z,3.90
2023-08-31T07:59:06.666Z,3.83
2023-08-31T08:01:35.975Z,4.03
2023-08-31T08:04:05.162Z,4.07
2023-08-31T08:06:34.504Z,3.38
2023-08-31T08:09:03.629Z,3.28
2023-08-31T08:11:33.889Z,3.45
2023-08-31T08:14:04.107Z,2.97
2023-08-31T08:16:33.610Z,2.67
2023-08-31T08:19:02.401Z,2.75
2023-08-31T08:21:34.129Z,2.65
2023-08-31T08:24:04.141Z,2.90
2023-08-31T08:29:08.198Z,3.00
2023-08-31T08:31:37.029Z,2.40
2023-08-31T08:34:06.913Z,3.25
2023-08-31T08:36:35.386Z,3.00
2023-08-31T08:39:05.429Z,2.63
2023-08-31T08:41:34.908Z,3.42
2023-08-31T08:44:07.965Z,2.90
2023-08-31T08:46:37.018Z,2.88
2023-08-31T08:49:08.205Z,2.60
2023-08-31T08:51:36.795Z,2.30
2023-08-31T08:54:07.028Z,2.88
2023-08-31T08:56:35.951Z,1.80
2023-08-31T08:59:05.093Z,2.10
2023-08-31T09:01:36.927Z,2.72
2023-08-31T09:04:08.574Z,2.50
2023-08-31T09:06:38.179Z,2.78
2023-08-31T09:09:09.871Z,2.38
2023-08-31T09:11:39.137Z,3.17
2023-08-31T09:14:18.253Z,1.98
2023-08-31T09:16:48.545Z,2.10
2023-08-31T09:19:23.956Z,2.03
2023-08-31T09:21:54.181Z,2.17
2023-08-31T09:24:24.252Z,2.33
2023-08-31T09:26:54.695Z,2.45
2023-08-31T09:29:26.751Z,1.85
2023-08-31T09:32:00.745Z,1.85
2023-08-31T09:34:38.509Z,2.45
2023-08-31T09:37:09.550Z,2.10
2023-08-31T09:39:39.099Z,1.48
2023-08-31T09:42:10.587Z,1.85
2023-08-31T09:44:42.206Z,1.70
2023-08-31T09:47:11.251Z,1.42
2023-08-31T09:49:43.618Z,1.30
2023-08-31T09:52:13.450Z,1.23
2023-08-31T09:54:42.251Z,1.20
2023-08-31T09:57:11.158Z,1.10
2023-08-31T09:59:40.511Z,1.23
2023-08-31T10:02:09.601Z,1.10
2023-08-31T10:04:38.294Z,1.10
2023-08-31T10:07:10.890Z,1.25
2023-08-31T10:09:40.018Z,0.70
2023-08-31T10:12:09.555Z,0.77
2023-08-31T10:14:41.460Z,0.77
2023-08-31T10:17:10.862Z,1.10
2023-08-31T10:19:40.397Z,0.90
2023-08-31T10:22:09.932Z,1.17
2023-08-31T10:24:57.533Z,1.17
2023-08-31T10:27:25.949Z,1.73
2023-08-31T10:29:56.561Z,1.17
2023-08-31T10:32:26.947Z,1.58
2023-08-31T10:35:09.332Z,1.50
2023-08-31T10:37:38.469Z,1.52
2023-08-31T10:40:13.684Z,1.00
2023-08-31T10:42:47.790Z,1.10
2023-08-31T10:45:17.052Z,1.00
2023-08-31T10:47:48.846Z,1.13
2023-08-31T10:50:23.782Z,1.10
2023-08-31T10:52:51.881Z,1.40
2023-08-31T10:55:20.193Z,1.00
2023-08-31T10:57:48.521Z,1.00
2023-08-31T11:00:36.737Z,0.98
2023-08-31T11:03:14.564Z,1.20
2023-08-31T11:05:53.040Z,1.40
2023-08-31T11:08:27.469Z,1.20
2023-08-31T11:10:55.669Z,1.23
2023-08-31T11:13:25.450Z,1.00
2023-08-31T11:15:54.124Z,1.15
2023-08-31T11:18:23.107Z,0.90
2023-08-31T11:20:54.139Z,1.23
2023-08-31T11:23:22.722Z,0.88
2023-08-31T11:25:53.647Z,0.80
2023-08-31T11:28:28.075Z,1.52
2023-08-31T11:30:59.582Z,1.63
2023-08-31T11:33:34.646Z,0.77
2023-08-31T11:36:03.488Z,1.15
2023-08-31T11:38:33.795Z,0.65
2023-08-31T11:41:06.309Z,0.80
2023-08-31T11:43:35.464Z,0.73
2023-08-31T11:46:04.458Z,1.10
2023-08-31T11:48:35.839Z,0.93
2023-08-31T11:51:05.853Z,1.33
2023-08-31T11:53:34.327Z,2.10
2023-08-31T11:56:06.973Z,0.80
2023-08-31T11:58:48.877Z,1.00
2023-08-31T12:01:24.416Z,0.88
2023-08-31T12:03:56.425Z,1.30
2023-08-31T12:06:27.565Z,1.25
2023-08-31T12:08:56.149Z,1.50
2023-08-31T12:11:24.438Z,1.00
2023-08-31T12:13:55.224Z,0.93
2023-08-31T12:16:26.369Z,0.80
2023-08-31T12:18:55.451Z,0.80
2023-08-31T12:21:28.651Z,0.95
2023-08-31T12:24:04.885Z,0.90
2023-08-31T12:26:33.788Z,0.90
2023-08-31T12:29:02.765Z,0.90
2023-08-31T12:31:33.272Z,0.77
2023-08-31T12:34:07.378Z,0.80
2023-08-31T12:36:37.975Z,1.30
2023-08-31T12:39:08.941Z,1.00
2023-08-31T12:41:38.101Z,1.00
2023-08-31T12:44:08.892Z,1.27
2023-08-31T12:46:37.808Z,1.30
2023-08-31T12:49:06.976Z,1.40
2023-08-31T12:51:41.004Z,0.95
2023-08-31T12:54:10.332Z,1.27
2023-08-31T12:56:39.255Z,1.33
2023-08-31T12:59:08.848Z,1.10
2023-08-31T13:01:37.302Z,1.50
2023-08-31T13:04:06.330Z,1.30
2023-08-31T13:06:38.338Z,1.10
2023-08-31T13:09:09.956Z,1.50
2023-08-31T13:11:38.645Z,1.70
2023-08-31T13:14:08.030Z,1.40
2023-08-31T13:16:38.221Z,1.33
2023-08-31T13:19:07.012Z,1.27
2023-08-31T13:21:35.299Z,1.40
2023-08-31T13:24:06.997Z,1.02
2023-08-31T13:26:35.352Z,1.42
2023-08-31T13:29:05.849Z,0.90
2023-08-31T13:31:34.920Z,0.90
2023-08-31T13:34:08.919Z,0.90
2023-08-31T13:36:39.551Z,0.73
2023-08-31T13:39:09.229Z,0.80
2023-08-31T13:41:37.895Z,1.10
2023-08-31T13:44:08.837Z,1.48
2023-08-31T13:46:37.287Z,1.00
2023-08-31T13:49:06.592Z,0.90
2023-08-31T13:51:35.965Z,0.70
2023-08-31T13:54:07.701Z,0.88
2023-08-31T13:56:39.030Z,0.90
2023-08-31T13:59:08.200Z,0.85
2023-08-31T14:01:36.699Z,0.70
2023-08-31T14:04:07.374Z,0.90
2023-08-31T14:06:36.354Z,0.73
2023-08-31T14:09:06.177Z,0.73
2023-08-31T14:11:38.414Z,1.08
2023-08-31T14:14:11.523Z,0.75
2023-08-31T14:16:41.363Z,0.90
2023-08-31T14:19:10.322Z,0.90
2023-08-31T14:21:39.714Z,2.08
2023-08-31T14:24:08.493Z,0.98
2023-08-31T14:26:37.152Z,1.00
2023-08-31T14:29:05.994Z,0.82
2023-08-31T14:31:36.986Z,1.00
2023-08-31T14:36:38.865Z,1.20
2023-08-31T14:39:11.704Z,1.17
2023-08-31T14:41:41.282Z,1.45
2023-08-31T14:44:10.019Z,1.27
2023-08-31T14:46:41.506Z,1.60
2023-08-31T14:49:10.207Z,1.10
2023-08-31T14:51:39.480Z,1.60
2023-08-31T14:54:07.952Z,1.38
2023-08-31T14:56:40.279Z,1.45
2023-08-31T14:59:11.498Z,1.48
2023-08-31T15:01:47.050Z,1.30
2023-08-31T15:04:22.072Z,1.63
2023-08-31T15:06:50.869Z,1.38
2023-08-31T15:09:22.812Z,1.60
2023-08-31T15:11:52.047Z,1.10
2023-08-31T15:14:21.388Z,2.05
2023-08-31T15:16:49.818Z,1.90
2023-08-31T15:19:18.097Z,1.92
2023-08-31T15:21:47.099Z,1.70
2023-08-31T15:24:21.013Z,3.17
2023-08-31T15:26:49.309Z,1.70
2023-08-31T15:29:22.026Z,1.65
2023-08-31T15:31:54.747Z,2.63
2023-08-31T15:34:23.658Z,2.65
2023-08-31T15:36:55.899Z,1.40
2023-08-31T15:39:24.370Z,1.35
2023-08-31T15:41:52.909Z,1.30
2023-08-31T15:44:21.497Z,1.27
2023-08-31T15:46:51.945Z,1.30
2023-08-31T15:49:22.974Z,1.48
2023-08-31T15:51:51.327Z,1.30
2023-08-31T15:54:21.619Z,1.33
2023-08-31T15:56:52.359Z,1.73
2023-08-31T15:59:22.753Z,1.48
2023-08-31T16:01:51.154Z,1.50
2023-08-31T16:04:24.234Z,2.03
2023-08-31T16:06:52.787Z,1.52
2023-08-31T16:09:22.678Z,1.48
2023-08-31T16:11:51.423Z,1.67
2023-08-31T16:14:21.083Z,1.50
2023-08-31T16:16:52.031Z,1.45
2023-08-31T16:19:25.451Z,1.40
2023-08-31T16:21:54.049Z,1.95
2023-08-31T16:24:22.530Z,1.67
2023-08-31T16:26:51.329Z,1.42
2023-08-31T16:29:19.610Z,1.40
2023-08-31T16:31:48.586Z,1.70
2023-08-31T16:34:16.929Z,1.50
2023-08-31T16:36:45.480Z,1.60
2023-08-31T16:39:14.233Z,1.58
2023-08-31T16:41:45.262Z,1.35
2023-08-31T16:44:13.552Z,5.38
2023-08-31T16:46:41.959Z,8.40
2023-08-31T16:49:13.212Z,2.63
2023-08-31T16:51:45.107Z,2.38
2023-08-31T16:54:16.223Z,2.22
2023-08-31T16:56:49.210Z,1.35
2023-08-31T16:59:24.616Z,1.52
2023-08-31T17:01:53.122Z,1.40
2023-08-31T17:04:28.471Z,1.38
2023-08-31T17:06:59.114Z,1.42
2023-08-31T17:09:27.926Z,1.55
2023-08-31T17:11:56.258Z,1.60
2023-08-31T17:14:24.554Z,1.13
2023-08-31T17:16:53.032Z,2.72
2023-08-31T17:19:22.165Z,1.70
2023-08-31T17:21:50.656Z,2.20
2023-08-31T17:24:23.940Z,1.80
2023-08-31T17:26:54.520Z,1.60
2023-08-31T17:29:25.515Z,1.60
2023-08-31T17:31:55.347Z,1.75
2023-08-31T17:34:27.474Z,1.88
2023-08-31T17:36:55.768Z,1.73
2023-08-31T17:39:24.386Z,1.60
2023-08-31T17:41:52.829Z,2.60
2023-08-31T17:44:22.715Z,2.08
2023-08-31T17:46:51.265Z,1.60
2023-08-31T17:49:21.890Z,1.70
2023-08-31T17:51:50.609Z,1.85
2023-08-31T17:54:18.859Z,1.40
2023-08-31T17:56:48.056Z,2.22
2023-08-31T17:59:19.093Z,2.13
2023-08-31T18:01:49.165Z,2.65
2023-08-31T18:04:22.099Z,1.90
2023-08-31T18:06:53.844Z,1.70
2023-08-31T18:09:27.647Z,2.03
2023-08-31T18:11:57.820Z,2.47
2023-08-31T18:14:26.495Z,1.83
2023-08-31T18:16:55.193Z,1.80
2023-08-31T18:19:28.358Z,1.67
2023-08-31T18:21:57.408Z,1.80
2023-08-31T18:24:27.269Z,1.98
2023-08-31T18:26:56.765Z,1.77
2023-08-31T18:29:27.711Z,2.10
2023-08-31T18:31:56.022Z,1.75
2023-08-31T18:34:24.732Z,1.98
2023-08-31T18:36:54.226Z,2.22
2023-08-31T18:39:24.286Z,1.50
2023-08-31T18:41:55.031Z,1.95
2023-08-31T18:44:26.305Z,1.63
2023-08-31T18:46:54.920Z,2.00
2023-08-31T18:49:27.051Z,1.92
2023-08-31T18:51:55.725Z,1.85
2023-08-31T18:54:26.533Z,2.13
2023-08-31T18:56:57.720Z,2.10
2023-08-31T18:59:28.533Z,2.00
2023-08-31T19:01:59.052Z,2.30
2023-08-31T19:04:28.628Z,2.83
2023-08-31T19:06:56.931Z,2.00
2023-08-31T19:09:25.526Z,1.90
2023-08-31T19:11:54.109Z,2.10
2023-08-31T19:14:25.008Z,1.70
2023-08-31T19:16:53.533Z,2.50
2023-08-31T19:19:24.126Z,2.22
2023-08-31T19:21:52.451Z,2.40
2023-08-31T19:24:21.004Z,2.30
2023-08-31T19:26:52.005Z,2.58
2023-08-31T19:29:20.628Z,1.75
2023-08-31T19:31:49.727Z,2.20
2023-08-31T19:34:18.003Z,2.75
2023-08-31T19:36:46.633Z,2.53
2023-08-31T19:39:15.946Z,2.40
2023-08-31T19:41:47.446Z,2.40
2023-08-31T19:44:19.209Z,2.38
2023-08-31T19:46:47.848Z,2.30
2023-08-31T19:49:18.815Z,2.33
2023-08-31T19:51:48.089Z,2.28
2023-08-31T19:54:16.752Z,2.55
2023-08-31T19:56:46.145Z,2.70
2023-08-31T19:59:15.615Z,2.70
2023-08-31T20:01:44.189Z,2.40
2023-08-31T20:04:14.910Z,2.45
2023-08-31T20:06:43.558Z,2.58
2023-08-31T20:09:12.320Z,2.55
2023-08-31T20:11:43.103Z,2.13
2023-08-31T20:14:14.436Z,2.15
2023-08-31T20:16:45.370Z,2.67
2023-08-31T20:19:14.588Z,2.33
2023-08-31T20:21:43.051Z,3.28
2023-08-31T20:24:14.153Z,2.90
2023-08-31T20:26:47.482Z,2.97
2023-08-31T20:29:18.975Z,2.22
2023-08-31T20:31:52.223Z,2.25
2023-08-31T20:34:21.051Z,2.53
2023-08-31T20:36:51.576Z,2.63
2023-08-31T20:39:20.082Z,2.33
2023-08-31T20:41:50.481Z,2.47
2023-08-31T20:44:19.168Z,2.90
2023-08-31T20:46:47.815Z,2.50
2023-08-31T20:49:21.178Z,2.28
2023-08-31T20:51:49.615Z,2.40
2023-08-31T20:54:20.205Z,2.63
2023-08-31T20:56:51.160Z,2.28
2023-08-31T20:59:22.478Z,2.25
2023-08-31T21:01:55.326Z,2.05
2023-08-31T21:04:24.190Z,2.40
2023-08-31T21:06:52.719Z,1.80
2023-08-31T21:09:21.728Z,2.25
2023-08-31T21:11:50.243Z,2.20
2023-08-31T21:14:19.224Z,3.38
2023-08-31T21:16:48.452Z,2.60
2023-08-31T21:19:19.435Z,2.20
2023-08-31T21:21:50.060Z,2.38
2023-08-31T21:24:18.526Z,1.90
2023-08-31T21:26:47.319Z,2.10
2023-08-31T21:29:16.835Z,2.25
2023-08-31T21:31:47.848Z,2.28
2023-08-31T21:34:19.605Z,2.25
2023-08-31T21:36:47.927Z,2.67
2023-08-31T21:39:17.082Z,1.85
2023-08-31T21:41:45.384Z,2.05
2023-08-31T21:44:15.103Z,2.30
2023-08-31T21:46:46.337Z,1.75
2023-08-31T21:49:20.355Z,1.98
2023-08-31T21:51:51.576Z,1.95
2023-08-31T21:54:20.121Z,2.00
2023-08-31T21:56:49.364Z,2.17
2023-08-31T21:59:20.703Z,2.00
2023-08-31T22:01:49.424Z,2.25
2023-08-31T22:04:21.455Z,1.95
2023-08-31T22:06:52.274Z,2.00
2023-08-31T22:09:23.667Z,2.28
2023-08-31T22:11:52.383Z,2.50
2023-08-31T22:14:21.377Z,2.10
2023-08-31T22:16:50.975Z,1.95
2023-08-31T22:19:20.246Z,1.70
2023-08-31T22:21:48.992Z,1.85
2023-08-31T22:24:17.763Z,1.98
2023-08-31T22:26:46.705Z,1.90
2023-08-31T22:29:17.870Z,1.52
2023-08-31T22:31:47.435Z,1.80
2023-08-31T22:34:16.496Z,2.10
2023-08-31T22:36:45.489Z,2.05
2023-08-31T22:39:14.610Z,1.83
2023-08-31T22:41:44.901Z,1.48
2023-08-31T22:44:18.140Z,2.10
2023-08-31T22:46:47.721Z,1.58
2023-08-31T22:49:16.835Z,2.70
2023-08-31T22:51:46.053Z,1.90
2023-08-31T22:54:14.875Z,1.80
2023-08-31T22:56:47.447Z,1.90
2023-08-31T22:59:16.602Z,1.80
2023-08-31T23:01:47.202Z,2.20
2023-08-31T23:04:20.010Z,1.83
2023-08-31T23:06:48.400Z,2.28
2023-08-31T23:09:16.826Z,2.03
2023-08-31T23:11:45.649Z,2.17
2023-08-31T23:14:14.313Z,2.05
2023-08-31T23:16:48.242Z,1.73
2023-08-31T23:19:17.154Z,2.00
2023-08-31T23:21:46.901Z,1.98
2023-08-31T23:24:17.607Z,1.67
2023-08-31T23:26:47.781Z,1.90
2023-08-31T23:29:18.511Z,2.28
2023-08-31T23:31:47.092Z,2.17
2023-08-31T23:34:15.635Z,2.05
2023-08-31T23:36:47.293Z,2.15
2023-08-31T23:39:16.252Z,2.15
2023-08-31T23:41:45.498Z,1.95
2023-08-31T23:44:14.147Z,1.83
2023-08-31T23:46:45.873Z,2.20
2023-08-31T23:49:14.168Z,1.92
2023-08-31T23:51:42.364Z,1.80
2023-08-31T23:54:10.819Z,2.03
2023-08-31T23:56:39.964Z,2.00
2023-08-31T23:59:08.427Z,2.50
